createdAt,value
2023-05-09T00:01:34.029Z,12.14
2023-05-09T00:05:26.481Z,12.15
2023-05-09T00:09:35.884Z,12.12
2023-05-09T00:13:00.907Z,12.08
2023-05-09T00:16:52.918Z,12.06
2023-05-09T00:20:38.202Z,12.05
2023-05-09T00:24:10.420Z,12.04
2023-05-09T00:28:11.263Z,12.05
2023-05-09T00:32:20.854Z,12.04
2023-05-09T00:36:30.487Z,12.02
2023-05-09T00:40:40.007Z,11.99
2023-05-09T00:44:32.868Z,11.96
2023-05-09T00:48:17.286Z,11.90
2023-05-09T00:51:39.658Z,11.84
2023-05-09T00:55:28.468Z,11.80
2023-05-09T00:59:24.498Z,11.76
2023-05-09T01:03:34.078Z,11.74
2023-05-09T01:07:40.240Z,11.70
2023-05-09T01:12:11.856Z,11.66
2023-05-09T01:16:36.572Z,11.63
2023-05-09T01:20:28.237Z,11.61
2023-05-09T01:24:36.517Z,11.59
2023-05-09T01:28:38.710Z,11.58
2023-05-09T01:32:31.314Z,11.59
2023-05-09T01:36:31.858Z,11.59
2023-05-09T01:40:41.379Z,11.58
2023-05-09T01:44:43.411Z,11.57
2023-05-09T01:48:52.873Z,11.57
2023-05-09T01:53:05.352Z,11.57
2023-05-09T01:57:14.967Z,11.58
2023-05-09T02:01:17.449Z,11.60
2023-05-09T02:05:27.065Z,11.61
2023-05-09T02:09:29.627Z,11.61
2023-05-09T02:13:39.558Z,11.60
2023-05-09T02:17:41.672Z,11.58
2023-05-09T02:21:51.702Z,11.59
2023-05-09T02:26:01.309Z,11.59
2023-05-09T02:29:41.996Z,11.59
2023-05-09T02:33:51.479Z,11.58
2023-05-09T02:37:52.285Z,11.58
2023-05-09T02:41:42.045Z,11.58
2023-05-09T02:45:44.800Z,11.57
2023-05-09T02:49:32.377Z,11.57
2023-05-09T02:53:42.549Z,11.59
2023-05-09T02:57:44.055Z,11.60
2023-05-09T03:01:43.876Z,11.60
2023-05-09T03:05:53.563Z,11.58
2023-05-09T03:09:42.280Z,11.55
2023-05-09T03:13:20.909Z,11.55
2023-05-09T03:17:28.849Z,11.52
2023-05-09T03:21:20.105Z,11.50
2023-05-09T03:25:18.059Z,11.45
2023-05-09T03:29:28.084Z,11.43
2023-05-09T03:33:26.535Z,11.41
2023-05-09T03:37:36.096Z,11.29
2023-05-09T03:41:37.591Z,11.13
2023-05-09T03:45:30.928Z,10.96
2023-05-09T03:49:32.900Z,10.77
2023-05-09T03:53:35.476Z,10.64
2023-05-09T03:57:37.908Z,10.51
2023-05-09T04:01:47.175Z,10.46
2023-05-09T04:05:56.687Z,10.46
2023-05-09T04:10:04.764Z,10.46
2023-05-09T04:14:07.291Z,10.55
2023-05-09T04:18:08.031Z,10.65
2023-05-09T04:22:16.347Z,10.74
2023-05-09T04:26:20.292Z,10.84
2023-05-09T04:29:49.915Z,10.93
2023-05-09T04:33:53.674Z,11.00
2023-05-09T04:37:36.838Z,11.08
2023-05-09T04:41:09.427Z,11.15
2023-05-09T04:44:36.925Z,11.20
2023-05-09T04:48:46.535Z,11.25
2023-05-09T04:52:32.469Z,11.29
2023-05-09T04:56:17.915Z,11.35
2023-05-09T05:00:01.929Z,11.42
2023-05-09T05:03:42.647Z,11.47
2023-05-09T05:07:50.960Z,11.53
2023-05-09T05:11:37.521Z,11.59
2023-05-09T05:15:14.642Z,11.65
2023-05-09T05:18:29.288Z,11.70
2023-05-09T05:21:58.630Z,11.77
2023-05-09T05:25:25.129Z,11.83
2023-05-09T05:28:32.595Z,11.88
2023-05-09T05:32:11.086Z,11.95
2023-05-09T05:35:19.422Z,12.00
2023-05-09T05:38:39.342Z,12.05
2023-05-09T05:42:21.229Z,12.12
2023-05-09T05:45:22.617Z,12.18
2023-05-09T05:48:02.760Z,12.25
2023-05-09T05:51:24.814Z,12.30
2023-05-09T05:55:34.225Z,12.37
2023-05-09T05:59:26.576Z,12.44
2023-05-09T06:03:35.673Z,12.51
2023-05-09T06:07:38.847Z,12.59
2023-05-09T06:11:26.635Z,12.67
2023-05-09T06:15:05.959Z,12.75
2023-05-09T06:19:05.124Z,12.83
2023-05-09T06:23:14.710Z,12.92
2023-05-09T06:27:17.512Z,13.00
2023-05-09T06:31:19.581Z,13.06
2023-05-09T06:34:54.416Z,13.14
2023-05-09T06:38:52.799Z,13.22
2023-05-09T06:42:27.674Z,13.28
2023-05-09T06:45:49.960Z,13.33
2023-05-09T06:49:18.542Z,13.38
2023-05-09T06:53:03.429Z,13.45
2023-05-09T06:56:43.515Z,13.48
2023-05-09T06:59:27.471Z,13.50
2023-05-09T07:02:42.238Z,13.53
2023-05-09T07:06:23.509Z,13.54
2023-05-09T07:10:11.181Z,13.54
2023-05-09T07:14:01.620Z,13.52
2023-05-09T07:17:52.668Z,13.54
2023-05-09T07:21:42.226Z,13.58
2023-05-09T07:25:51.811Z,13.59
2023-05-09T07:30:01.306Z,13.59
2023-05-09T07:33:53.248Z,13.61
2023-05-09T07:37:52.805Z,13.63
2023-05-09T07:41:51.045Z,13.66
2023-05-09T07:46:00.628Z,13.70
2023-05-09T07:49:46.583Z,13.76
2023-05-09T07:53:08.657Z,13.82
2023-05-09T07:57:09.498Z,13.86
2023-05-09T08:00:46.545Z,13.89
2023-05-09T08:04:44.072Z,13.93
2023-05-09T08:08:34.470Z,13.95
2023-05-09T08:12:45.533Z,14.00
2023-05-09T08:16:55.134Z,14.05
2023-05-09T08:20:31.874Z,14.12
2023-05-09T08:23:53.294Z,14.17
2023-05-09T08:27:00.829Z,14.22
2023-05-09T08:30:33.985Z,14.26
2023-05-09T08:34:01.664Z,14.29
2023-05-09T08:37:54.439Z,14.32
2023-05-09T08:41:34.158Z,14.34
2023-05-09T08:44:43.807Z,14.37
2023-05-09T08:48:07.664Z,14.38
2023-05-09T08:51:38.351Z,14.39
2023-05-09T08:54:27.112Z,14.42
2023-05-09T08:57:16.424Z,14.42
2023-05-09T09:00:20.252Z,14.44
2023-05-09T09:04:00.454Z,14.45
2023-05-09T09:07:59.954Z,14.47
2023-05-09T09:11:30.911Z,14.50
2023-05-09T09:15:05.366Z,14.54
2023-05-09T09:19:03.988Z,14.58
2023-05-09T09:22:50.303Z,14.63
2023-05-09T09:26:22.642Z,14.66
2023-05-09T09:29:41.178Z,14.70
2023-05-09T09:32:40.348Z,14.73
2023-05-09T09:35:12.290Z,14.79
2023-05-09T09:39:02.289Z,14.83
2023-05-09T09:42:40.106Z,14.87
2023-05-09T09:46:19.966Z,14.89
2023-05-09T09:49:50.768Z,14.93
2023-05-09T09:53:43.673Z,14.97
2023-05-09T09:57:37.347Z,15.00
2023-05-09T10:00:56.034Z,15.06
2023-05-09T10:04:06.245Z,15.13
2023-05-09T10:07:33.207Z,15.18
2023-05-09T10:11:16.054Z,15.23
2023-05-09T10:14:07.140Z,15.23
2023-05-09T10:18:01.398Z,15.24
2023-05-09T10:21:02.851Z,15.24
2023-05-09T10:24:08.106Z,15.19
2023-05-09T10:27:46.627Z,15.17
2023-05-09T10:31:09.079Z,15.15
2023-05-09T10:35:18.550Z,15.14
2023-05-09T10:38:42.364Z,15.14
2023-05-09T10:42:42.361Z,15.15
2023-05-09T10:46:11.059Z,15.12
2023-05-09T10:49:53.235Z,15.10
2023-05-09T10:53:46.284Z,15.12
2023-05-09T10:57:54.705Z,15.14
2023-05-09T11:01:37.935Z,15.17
2023-05-09T11:05:29.728Z,15.20
2023-05-09T11:09:28.157Z,15.23
2023-05-09T11:13:19.446Z,15.26
2023-05-09T11:16:53.806Z,15.27
2023-05-09T11:20:10.879Z,15.32
2023-05-09T11:23:24.254Z,15.37
2023-05-09T11:26:46.578Z,15.41
2023-05-09T11:30:47.077Z,15.43
2023-05-09T11:33:56.384Z,15.48
2023-05-09T11:37:30.218Z,15.52
2023-05-09T11:40:43.875Z,15.55
2023-05-09T11:44:54.057Z,15.56
2023-05-09T11:48:43.629Z,15.60
2023-05-09T11:52:10.070Z,15.66
2023-05-09T11:56:03.134Z,15.72
2023-05-09T11:59:45.832Z,15.74
2023-05-09T12:03:45.723Z,15.81
2023-05-09T12:07:13.290Z,15.86
2023-05-09T12:10:06.503Z,15.85
2023-05-09T12:13:31.405Z,15.83
2023-05-09T12:17:08.963Z,15.86
2023-05-09T12:20:21.077Z,15.90
2023-05-09T12:24:01.763Z,15.94
2023-05-09T12:28:02.274Z,15.96
2023-05-09T12:31:35.419Z,15.99
2023-05-09T12:35:11.936Z,16.02
2023-05-09T12:38:34.544Z,16.05
2023-05-09T12:42:25.667Z,16.02
2023-05-09T12:46:36.880Z,16.03
2023-05-09T12:49:51.321Z,16.07
2023-05-09T12:53:22.041Z,16.12
2023-05-09T12:57:30.143Z,16.15
2023-05-09T13:00:45.479Z,16.21
2023-05-09T13:04:23.482Z,16.31
2023-05-09T13:07:48.525Z,16.37
2023-05-09T13:11:40.888Z,16.38
2023-05-09T13:15:50.626Z,16.39
2023-05-09T13:19:57.702Z,16.38
2023-05-09T13:23:28.628Z,16.36
2023-05-09T13:26:58.561Z,16.36
2023-05-09T13:30:14.835Z,16.33
2023-05-09T13:33:42.281Z,16.31
2023-05-09T13:37:20.987Z,16.30
2023-05-09T13:41:04.518Z,16.35
2023-05-09T13:44:09.423Z,16.43
2023-05-09T13:47:53.086Z,16.46
2023-05-09T13:51:56.747Z,16.54
2023-05-09T13:55:34.568Z,16.59
2023-05-09T13:58:57.387Z,16.60
2023-05-09T14:02:32.714Z,16.70
2023-05-09T14:06:04.218Z,16.80
2023-05-09T14:09:15.906Z,16.88
2023-05-09T14:13:11.231Z,16.94
2023-05-09T14:16:23.451Z,16.97
2023-05-09T14:19:03.384Z,17.03
2023-05-09T14:22:03.494Z,17.15
2023-05-09T14:25:08.196Z,17.26
2023-05-09T14:27:48.865Z,17.34
2023-05-09T14:30:52.292Z,17.44
2023-05-09T14:33:28.154Z,17.50
2023-05-09T14:36:02.986Z,17.65
2023-05-09T14:38:46.896Z,17.78
2023-05-09T14:41:23.458Z,17.89
2023-05-09T14:43:55.151Z,18.01
2023-05-09T14:46:55.762Z,18.13
2023-05-09T14:50:36.453Z,18.37
2023-05-09T14:54:04.693Z,18.55
2023-05-09T14:57:56.707Z,18.72
2023-05-09T15:01:10.584Z,18.94
2023-05-09T15:04:22.248Z,19.16
2023-05-09T15:08:25.081Z,19.35
2023-05-09T15:12:00.187Z,19.58
2023-05-09T15:15:13.250Z,19.77
2023-05-09T15:18:07.985Z,19.93
2023-05-09T15:21:28.829Z,20.02
2023-05-09T15:24:31.452Z,19.99
2023-05-09T15:27:57.160Z,20.03
2023-05-09T15:31:24.132Z,20.03
2023-05-09T15:34:12.684Z,20.08
2023-05-09T15:37:13.238Z,20.06
2023-05-09T15:40:10.514Z,19.95
2023-05-09T15:43:11.947Z,19.91
2023-05-09T15:46:45.781Z,19.97
2023-05-09T15:50:30.603Z,20.04
2023-05-09T15:53:50.352Z,20.05
2023-05-09T15:56:58.178Z,19.98
2023-05-09T16:00:30.697Z,19.84
2023-05-09T16:03:29.399Z,19.77
2023-05-09T16:06:27.800Z,19.85
2023-05-09T16:09:03.848Z,19.83
2023-05-09T16:11:51.868Z,19.70
2023-05-09T16:15:27.285Z,19.61
2023-05-09T16:19:14.323Z,19.58
2023-05-09T16:22:15.202Z,19.52
2023-05-09T16:25:30.939Z,19.40
2023-05-09T16:28:34.670Z,19.22
2023-05-09T16:31:30.603Z,19.18
2023-05-09T16:34:33.932Z,19.19
2023-05-09T16:37:19.089Z,19.21
2023-05-09T16:40:08.772Z,19.15
2023-05-09T16:43:27.662Z,19.01
2023-05-09T16:47:21.676Z,18.89
2023-05-09T16:50:21.769Z,18.85
2023-05-09T16:53:45.146Z,18.80
2023-05-09T16:57:29.623Z,18.85
2023-05-09T17:00:43.472Z,18.91
2023-05-09T17:04:43.359Z,18.87
2023-05-09T17:08:42.515Z,18.84
2023-05-09T17:12:19.625Z,18.78
2023-05-09T17:16:05.605Z,18.79
2023-05-09T17:19:14.067Z,18.69
2023-05-09T17:23:06.736Z,18.61
2023-05-09T17:27:01.384Z,18.42
2023-05-09T17:30:40.473Z,18.21
2023-05-09T17:34:09.082Z,18.03
2023-05-09T17:36:58.722Z,17.84
2023-05-09T17:40:41.565Z,17.70
2023-05-09T17:44:15.992Z,17.51
2023-05-09T17:47:14.299Z,17.35
2023-05-09T17:49:51.115Z,17.10
2023-05-09T17:52:19.847Z,16.91
2023-05-09T17:55:01.495Z,16.74
2023-05-09T17:57:44.044Z,16.58
2023-05-09T18:00:18.658Z,16.45
2023-05-09T18:03:05.472Z,16.32
2023-05-09T18:06:13.522Z,16.25
2023-05-09T18:09:12.932Z,16.26
2023-05-09T18:11:59.162Z,16.21
2023-05-09T18:15:03.379Z,16.12
2023-05-09T18:17:59.457Z,16.01
2023-05-09T18:20:59.624Z,15.95
2023-05-09T18:23:56.345Z,15.88
2023-05-09T18:26:35.431Z,15.78
2023-05-09T18:29:24.353Z,15.70
2023-05-09T18:32:02.102Z,15.59
2023-05-09T18:35:07.424Z,15.45
2023-05-09T18:37:42.185Z,15.32
2023-05-09T18:40:17.057Z,15.21
2023-05-09T18:43:18.268Z,15.13
2023-05-09T18:46:47.696Z,15.05
2023-05-09T18:49:26.392Z,14.99
2023-05-09T18:52:53.922Z,14.87
2023-05-09T18:56:39.064Z,14.67
2023-05-09T18:59:13.770Z,14.59
2023-05-09T19:01:51.839Z,14.51
2023-05-09T19:05:03.148Z,14.45
2023-05-09T19:08:16.306Z,14.39
2023-05-09T19:11:01.655Z,14.33
2023-05-09T19:14:01.030Z,14.27
2023-05-09T19:17:45.319Z,14.20
2023-05-09T19:21:38.421Z,14.15
2023-05-09T19:24:52.657Z,14.09
2023-05-09T19:28:19.020Z,14.02
2023-05-09T19:31:39.676Z,13.96
2023-05-09T19:35:30.731Z,13.91
2023-05-09T19:39:12.435Z,13.86
2023-05-09T19:43:22.241Z,13.77
2023-05-09T19:46:06.074Z,13.65
2023-05-09T19:49:30.388Z,13.57
2023-05-09T19:52:40.169Z,13.46
2023-05-09T19:55:13.685Z,13.38
2023-05-09T19:58:18.086Z,13.33
2023-05-09T20:01:42.904Z,13.30
2023-05-09T20:04:42.601Z,13.23
2023-05-09T20:08:29.772Z,13.18
2023-05-09T20:12:21.258Z,13.11
2023-05-09T20:16:09.350Z,13.06
2023-05-09T20:19:06.491Z,13.04
2023-05-09T20:22:04.426Z,13.02
2023-05-09T20:25:13.123Z,13.00
2023-05-09T20:28:22.262Z,12.98
2023-05-09T20:31:49.267Z,12.96
2023-05-09T20:35:11.084Z,12.93
2023-05-09T20:39:13.297Z,12.92
2023-05-09T20:42:57.566Z,12.88
2023-05-09T20:46:34.853Z,12.84
2023-05-09T20:50:26.491Z,12.83
2023-05-09T20:54:17.709Z,12.83
2023-05-09T20:58:27.522Z,12.85
2023-05-09T21:02:11.771Z,12.85
2023-05-09T21:06:21.191Z,12.85
2023-05-09T21:10:06.542Z,12.85
2023-05-09T21:14:16.210Z,12.81
2023-05-09T21:18:16.780Z,12.70
2023-05-09T21:21:02.924Z,12.64
2023-05-09T21:24:31.154Z,12.63
2023-05-09T21:28:30.839Z,12.62
2023-05-09T21:32:40.501Z,12.60
2023-05-09T21:36:25.186Z,12.62
2023-05-09T21:40:10.002Z,12.61
2023-05-09T21:43:54.817Z,12.58
2023-05-09T21:47:38.853Z,12.54
2023-05-09T21:51:30.981Z,12.51
2023-05-09T21:55:40.526Z,12.47
2023-05-09T21:59:41.268Z,12.45
2023-05-09T22:03:34.095Z,12.42
2023-05-09T22:07:23.705Z,12.39
2023-05-09T22:11:33.195Z,12.41
2023-05-09T22:15:42.624Z,12.41
2023-05-09T22:19:52.194Z,12.40
2023-05-09T22:23:26.311Z,12.42
2023-05-09T22:27:10.795Z,12.44
2023-05-09T22:31:20.368Z,12.45
2023-05-09T22:35:30.116Z,12.47
2023-05-09T22:39:14.706Z,12.50
2023-05-09T22:43:24.280Z,12.52
2023-05-09T22:46:59.789Z,12.51
2023-05-09T22:50:31.626Z,12.53
2023-05-09T22:54:15.017Z,12.54
2023-05-09T22:58:23.331Z,12.56
2023-05-09T23:02:18.194Z,12.53
2023-05-09T23:06:07.553Z,12.49
2023-05-09T23:09:51.177Z,12.49
2023-05-09T23:13:59.763Z,12.50
2023-05-09T23:17:59.068Z,12.52
2023-05-09T23:22:09.012Z,12.53
2023-05-09T23:25:51.594Z,12.53
2023-05-09T23:29:25.208Z,12.52
2023-05-09T23:33:34.849Z,12.52
2023-05-09T23:37:44.140Z,12.52
2023-05-09T23:41:53.719Z,12.53
2023-05-09T23:45:56.323Z,12.52
2023-05-09T23:49:47.611Z,12.49
2023-05-09T23:53:57.206Z,12.44
2023-05-09T23:57:59.506Z,12.41
